Terminal Aerodrome Forecast
Issued by NWS

Home | Current Version | Previous Version | Text Only | Print | Product List | Glossary On
Versions: 1 2 3 4 5 6 7 8 9 10 11 12 13 14
000
FTUS46 KEKA 301120
TAFUKI
TAF
KUKI 301120Z 3012/3112 00000KT P6SM SCT250
     FM302100 14005KT P6SM BKN150
     FM310700 15005KT P6SM OVC060
      TEMPO 3108/3110 P6SM -SHRA OVC035
     FM311000 19005KT P6SM -RA OVC030=

USA.gov is the U.S. government's official web portal to all federal, state and local government web resources and services.